sensor_id;sensor_type;location;lat;lon;timestamp;P1;durP1;ratioP1;P2;durP2;ratioP2
61096;SDS011;46977;50.936;6.908;2022-12-05T00:00:29;54.38;;;21.10;;
61096;SDS011;46977;50.936;6.908;2022-12-05T00:03:33;55.67;;;22.83;;
61096;SDS011;46977;50.936;6.908;2022-12-05T00:06:36;56.88;;;22.63;;
61096;SDS011;46977;50.936;6.908;2022-12-05T00:09:41;64.20;;;24.33;;
61096;SDS011;46977;50.936;6.908;2022-12-05T00:12:43;57.50;;;20.27;;
61096;SDS011;46977;50.936;6.908;2022-12-05T00:15:45;63.75;;;21.67;;
61096;SDS011;46977;50.936;6.908;2022-12-05T00:18:48;55.75;;;23.30;;
61096;SDS011;46977;50.936;6.908;2022-12-05T00:21:50;69.20;;;23.00;;
61096;SDS011;46977;50.936;6.908;2022-12-05T00:24:54;65.70;;;24.90;;
61096;SDS011;46977;50.936;6.908;2022-12-05T00:27:56;63.45;;;22.75;;
61096;SDS011;46977;50.936;6.908;2022-12-05T00:31:00;63.53;;;22.63;;
61096;SDS011;46977;50.936;6.908;2022-12-05T00:34:03;66.80;;;25.35;;
61096;SDS011;46977;50.936;6.908;2022-12-05T00:37:05;68.53;;;23.50;;
61096;SDS011;46977;50.936;6.908;2022-12-05T00:40:09;65.68;;;24.02;;
61096;SDS011;46977;50.936;6.908;2022-12-05T00:43:12;62.50;;;22.98;;
61096;SDS011;46977;50.936;6.908;2022-12-05T00:46:15;63.85;;;24.67;;
61096;SDS011;46977;50.936;6.908;2022-12-05T00:49:18;52.67;;;22.52;;
61096;SDS011;46977;50.936;6.908;2022-12-05T00:52:21;63.78;;;21.02;;
61096;SDS011;46977;50.936;6.908;2022-12-05T00:55:24;61.78;;;22.67;;
61096;SDS011;46977;50.936;6.908;2022-12-05T00:58:26;59.70;;;23.35;;
61096;SDS011;46977;50.936;6.908;2022-12-05T01:01:30;60.60;;;23.60;;
61096;SDS011;46977;50.936;6.908;2022-12-05T01:04:36;62.10;;;22.77;;
61096;SDS011;46977;50.936;6.908;2022-12-05T01:07:38;61.88;;;22.10;;
61096;SDS011;46977;50.936;6.908;2022-12-05T01:10:42;62.88;;;21.95;;
61096;SDS011;46977;50.936;6.908;2022-12-05T01:13:54;54.92;;;19.77;;
61096;SDS011;46977;50.936;6.908;2022-12-05T01:16:56;56.03;;;19.80;;
61096;SDS011;46977;50.936;6.908;2022-12-05T01:19:59;52.53;;;21.50;;
61096;SDS011;46977;50.936;6.908;2022-12-05T01:23:02;55.42;;;20.63;;
61096;SDS011;46977;50.936;6.908;2022-12-05T01:26:06;60.25;;;20.63;;
61096;SDS011;46977;50.936;6.908;2022-12-05T01:29:10;54.35;;;19.85;;
61096;SDS011;46977;50.936;6.908;2022-12-05T01:32:14;59.80;;;21.30;;
61096;SDS011;46977;50.936;6.908;2022-12-05T01:35:17;51.03;;;18.90;;
61096;SDS011;46977;50.936;6.908;2022-12-05T01:38:19;52.13;;;20.10;;
61096;SDS011;46977;50.936;6.908;2022-12-05T01:41:23;53.17;;;20.63;;
61096;SDS011;46977;50.936;6.908;2022-12-05T01:48:01;49.05;;;20.27;;
61096;SDS011;46977;50.936;6.908;2022-12-05T01:51:05;48.33;;;19.42;;
61096;SDS011;46977;50.936;6.908;2022-12-05T01:54:07;55.92;;;19.00;;
61096;SDS011;46977;50.936;6.908;2022-12-05T01:57:11;56.72;;;19.73;;
61096;SDS011;46977;50.936;6.908;2022-12-05T02:00:15;52.85;;;19.17;;
61096;SDS011;46977;50.936;6.908;2022-12-05T02:03:19;49.85;;;17.98;;
61096;SDS011;46977;50.936;6.908;2022-12-05T02:06:22;55.30;;;20.27;;
61096;SDS011;46977;50.936;6.908;2022-12-05T02:09:25;49.08;;;20.17;;
61096;SDS011;46977;50.936;6.908;2022-12-05T02:12:28;58.78;;;19.58;;
61096;SDS011;46977;50.936;6.908;2022-12-05T02:15:35;50.80;;;19.88;;
61096;SDS011;46977;50.936;6.908;2022-12-05T02:18:55;54.83;;;19.83;;
61096;SDS011;46977;50.936;6.908;2022-12-05T02:22:29;63.08;;;20.23;;
61096;SDS011;46977;50.936;6.908;2022-12-05T02:33:11;48.45;;;19.73;;
61096;SDS011;46977;50.936;6.908;2022-12-05T02:36:21;54.47;;;20.20;;
61096;SDS011;46977;50.936;6.908;2022-12-05T02:39:28;51.13;;;18.80;;
61096;SDS011;46977;50.936;6.908;2022-12-05T02:42:35;53.47;;;20.40;;
61096;SDS011;46977;50.936;6.908;2022-12-05T02:45:39;58.33;;;19.73;;
61096;SDS011;46977;50.936;6.908;2022-12-05T02:48:44;49.28;;;19.20;;
61096;SDS011;46977;50.936;6.908;2022-12-05T02:51:49;51.67;;;19.27;;
61096;SDS011;46977;50.936;6.908;2022-12-05T02:54:54;55.63;;;20.50;;
61096;SDS011;46977;50.936;6.908;2022-12-05T02:57:57;54.42;;;19.13;;
61096;SDS011;46977;50.936;6.908;2022-12-05T03:01:01;53.65;;;19.55;;
61096;SDS011;46977;50.936;6.908;2022-12-05T03:04:07;46.63;;;17.70;;
61096;SDS011;46977;50.936;6.908;2022-12-05T03:07:11;49.95;;;17.65;;
61096;SDS011;46977;50.936;6.908;2022-12-05T03:10:15;50.10;;;17.50;;
61096;SDS011;46977;50.936;6.908;2022-12-05T03:13:19;42.63;;;17.75;;
61096;SDS011;46977;50.936;6.908;2022-12-05T03:16:25;46.75;;;19.48;;
61096;SDS011;46977;50.936;6.908;2022-12-05T03:19:33;42.05;;;17.10;;
61096;SDS011;46977;50.936;6.908;2022-12-05T03:22:39;53.60;;;17.92;;
61096;SDS011;46977;50.936;6.908;2022-12-05T03:25:46;51.53;;;18.88;;
61096;SDS011;46977;50.936;6.908;2022-12-05T03:28:53;42.38;;;16.33;;
61096;SDS011;46977;50.936;6.908;2022-12-05T03:32:02;46.65;;;17.42;;
61096;SDS011;46977;50.936;6.908;2022-12-05T03:35:10;44.75;;;17.30;;
61096;SDS011;46977;50.936;6.908;2022-12-05T03:38:17;43.70;;;17.25;;
61096;SDS011;46977;50.936;6.908;2022-12-05T03:41:23;43.50;;;18.02;;
61096;SDS011;46977;50.936;6.908;2022-12-05T03:44:28;45.08;;;18.58;;
61096;SDS011;46977;50.936;6.908;2022-12-05T03:47:36;46.72;;;14.98;;
61096;SDS011;46977;50.936;6.908;2022-12-05T03:50:44;40.72;;;15.85;;
61096;SDS011;46977;50.936;6.908;2022-12-05T03:53:48;41.65;;;16.55;;
61096;SDS011;46977;50.936;6.908;2022-12-05T03:56:53;42.20;;;16.02;;
61096;SDS011;46977;50.936;6.908;2022-12-05T04:00:00;49.10;;;18.17;;
61096;SDS011;46977;50.936;6.908;2022-12-05T04:03:06;39.42;;;15.60;;
61096;SDS011;46977;50.936;6.908;2022-12-05T04:06:14;41.60;;;16.17;;
61096;SDS011;46977;50.936;6.908;2022-12-05T04:09:20;42.90;;;16.40;;
61096;SDS011;46977;50.936;6.908;2022-12-05T04:12:27;41.40;;;14.43;;
61096;SDS011;46977;50.936;6.908;2022-12-05T04:15:31;38.97;;;15.90;;
61096;SDS011;46977;50.936;6.908;2022-12-05T04:18:56;42.10;;;14.88;;
61096;SDS011;46977;50.936;6.908;2022-12-05T04:22:04;38.72;;;15.75;;
61096;SDS011;46977;50.936;6.908;2022-12-05T04:25:08;38.03;;;14.35;;
61096;SDS011;46977;50.936;6.908;2022-12-05T04:28:31;38.80;;;15.27;;
61096;SDS011;46977;50.936;6.908;2022-12-05T04:31:36;37.88;;;15.38;;
61096;SDS011;46977;50.936;6.908;2022-12-05T04:34:43;49.45;;;17.45;;
61096;SDS011;46977;50.936;6.908;2022-12-05T04:37:50;36.53;;;16.88;;
61096;SDS011;46977;50.936;6.908;2022-12-05T04:40:54;38.35;;;15.32;;
61096;SDS011;46977;50.936;6.908;2022-12-05T04:44:01;38.60;;;14.90;;
61096;SDS011;46977;50.936;6.908;2022-12-05T04:47:07;37.70;;;15.90;;
61096;SDS011;46977;50.936;6.908;2022-12-05T04:50:10;36.65;;;15.27;;
61096;SDS011;46977;50.936;6.908;2022-12-05T04:53:15;39.72;;;14.52;;
61096;SDS011;46977;50.936;6.908;2022-12-05T04:56:18;34.38;;;15.40;;
61096;SDS011;46977;50.936;6.908;2022-12-05T04:59:21;34.50;;;14.52;;
61096;SDS011;46977;50.936;6.908;2022-12-05T05:02:26;47.00;;;17.25;;
61096;SDS011;46977;50.936;6.908;2022-12-05T05:05:31;40.00;;;15.25;;
61096;SDS011;46977;50.936;6.908;2022-12-05T05:08:44;37.83;;;14.50;;
61096;SDS011;46977;50.936;6.908;2022-12-05T05:11:48;41.33;;;14.65;;
61096;SDS011;46977;50.936;6.908;2022-12-05T05:14:50;37.88;;;16.10;;
61096;SDS011;46977;50.936;6.908;2022-12-05T05:17:52;36.33;;;14.32;;
61096;SDS011;46977;50.936;6.908;2022-12-05T05:20:55;41.55;;;16.38;;
61096;SDS011;46977;50.936;6.908;2022-12-05T05:23:58;33.20;;;13.93;;
61096;SDS011;46977;50.936;6.908;2022-12-05T05:27:01;38.35;;;13.90;;
61096;SDS011;46977;50.936;6.908;2022-12-05T05:30:04;32.60;;;14.32;;
61096;SDS011;46977;50.936;6.908;2022-12-05T05:33:07;35.00;;;14.27;;
61096;SDS011;46977;50.936;6.908;2022-12-05T05:36:10;34.95;;;14.95;;
61096;SDS011;46977;50.936;6.908;2022-12-05T05:39:16;38.08;;;15.23;;
61096;SDS011;46977;50.936;6.908;2022-12-05T05:42:18;34.83;;;14.45;;
61096;SDS011;46977;50.936;6.908;2022-12-05T05:45:21;36.20;;;15.05;;
61096;SDS011;46977;50.936;6.908;2022-12-05T05:48:23;34.35;;;14.85;;
61096;SDS011;46977;50.936;6.908;2022-12-05T05:51:25;34.80;;;13.57;;
61096;SDS011;46977;50.936;6.908;2022-12-05T05:54:31;37.13;;;15.05;;
61096;SDS011;46977;50.936;6.908;2022-12-05T05:57:33;35.83;;;14.57;;
61096;SDS011;46977;50.936;6.908;2022-12-05T06:00:36;35.55;;;13.52;;
61096;SDS011;46977;50.936;6.908;2022-12-05T06:03:38;32.53;;;14.85;;
61096;SDS011;46977;50.936;6.908;2022-12-05T06:06:41;34.22;;;12.25;;
61096;SDS011;46977;50.936;6.908;2022-12-05T06:09:44;32.83;;;13.73;;
61096;SDS011;46977;50.936;6.908;2022-12-05T06:12:47;33.75;;;13.90;;
61096;SDS011;46977;50.936;6.908;2022-12-05T06:15:49;31.20;;;13.63;;
61096;SDS011;46977;50.936;6.908;2022-12-05T06:18:51;30.88;;;14.25;;
61096;SDS011;46977;50.936;6.908;2022-12-05T06:21:54;31.27;;;13.38;;
61096;SDS011;46977;50.936;6.908;2022-12-05T06:24:58;36.03;;;15.25;;
61096;SDS011;46977;50.936;6.908;2022-12-05T06:28:00;34.40;;;13.52;;
61096;SDS011;46977;50.936;6.908;2022-12-05T06:31:05;35.85;;;14.60;;
61096;SDS011;46977;50.936;6.908;2022-12-05T06:34:08;37.75;;;14.80;;
61096;SDS011;46977;50.936;6.908;2022-12-05T06:37:10;40.03;;;15.32;;
61096;SDS011;46977;50.936;6.908;2022-12-05T06:40:14;33.45;;;13.88;;
61096;SDS011;46977;50.936;6.908;2022-12-05T06:43:16;32.08;;;14.45;;
61096;SDS011;46977;50.936;6.908;2022-12-05T06:46:19;40.10;;;15.20;;
61096;SDS011;46977;50.936;6.908;2022-12-05T06:49:22;36.13;;;14.88;;
61096;SDS011;46977;50.936;6.908;2022-12-05T06:52:33;40.88;;;15.70;;
61096;SDS011;46977;50.936;6.908;2022-12-05T06:55:37;45.65;;;16.23;;
61096;SDS011;46977;50.936;6.908;2022-12-05T06:58:39;44.63;;;16.42;;
61096;SDS011;46977;50.936;6.908;2022-12-05T07:01:43;37.72;;;15.02;;
61096;SDS011;46977;50.936;6.908;2022-12-05T07:04:47;37.17;;;15.20;;
61096;SDS011;46977;50.936;6.908;2022-12-05T07:07:49;36.25;;;16.65;;
61096;SDS011;46977;50.936;6.908;2022-12-05T07:10:53;44.88;;;19.40;;
61096;SDS011;46977;50.936;6.908;2022-12-05T07:13:57;37.17;;;16.70;;
61096;SDS011;46977;50.936;6.908;2022-12-05T07:16:59;39.60;;;16.42;;
61096;SDS011;46977;50.936;6.908;2022-12-05T07:20:02;43.67;;;15.88;;
61096;SDS011;46977;50.936;6.908;2022-12-05T07:23:06;43.53;;;16.92;;
61096;SDS011;46977;50.936;6.908;2022-12-05T07:26:12;39.83;;;16.38;;
61096;SDS011;46977;50.936;6.908;2022-12-05T07:29:15;40.22;;;16.17;;
61096;SDS011;46977;50.936;6.908;2022-12-05T07:32:18;40.35;;;15.95;;
61096;SDS011;46977;50.936;6.908;2022-12-05T07:35:20;37.63;;;16.67;;
61096;SDS011;46977;50.936;6.908;2022-12-05T07:38:23;38.83;;;15.40;;
61096;SDS011;46977;50.936;6.908;2022-12-05T07:41:27;37.25;;;15.38;;
61096;SDS011;46977;50.936;6.908;2022-12-05T07:44:31;36.85;;;14.77;;
61096;SDS011;46977;50.936;6.908;2022-12-05T07:47:33;39.65;;;16.58;;
61096;SDS011;46977;50.936;6.908;2022-12-05T07:50:36;39.35;;;14.82;;
61096;SDS011;46977;50.936;6.908;2022-12-05T07:53:39;38.40;;;14.25;;
61096;SDS011;46977;50.936;6.908;2022-12-05T07:56:46;36.50;;;15.57;;
61096;SDS011;46977;50.936;6.908;2022-12-05T07:59:49;36.80;;;14.82;;
61096;SDS011;46977;50.936;6.908;2022-12-05T08:02:51;32.65;;;14.18;;
61096;SDS011;46977;50.936;6.908;2022-12-05T08:05:53;32.33;;;14.43;;
61096;SDS011;46977;50.936;6.908;2022-12-05T08:08:56;38.25;;;15.00;;
61096;SDS011;46977;50.936;6.908;2022-12-05T08:12:00;32.20;;;14.48;;
61096;SDS011;46977;50.936;6.908;2022-12-05T08:15:03;35.33;;;15.20;;
61096;SDS011;46977;50.936;6.908;2022-12-05T08:18:06;33.83;;;15.60;;
61096;SDS011;46977;50.936;6.908;2022-12-05T08:21:09;35.60;;;16.42;;
61096;SDS011;46977;50.936;6.908;2022-12-05T08:24:12;39.38;;;16.25;;
61096;SDS011;46977;50.936;6.908;2022-12-05T08:27:17;38.30;;;15.68;;
61096;SDS011;46977;50.936;6.908;2022-12-05T08:30:20;34.97;;;15.30;;
61096;SDS011;46977;50.936;6.908;2022-12-05T08:33:23;34.30;;;14.70;;
61096;SDS011;46977;50.936;6.908;2022-12-05T08:36:25;37.33;;;15.55;;
61096;SDS011;46977;50.936;6.908;2022-12-05T08:39:28;34.80;;;14.25;;
61096;SDS011;46977;50.936;6.908;2022-12-05T08:42:40;35.80;;;15.60;;
61096;SDS011;46977;50.936;6.908;2022-12-05T08:45:47;30.45;;;13.40;;
61096;SDS011;46977;50.936;6.908;2022-12-05T08:48:50;37.08;;;14.15;;
61096;SDS011;46977;50.936;6.908;2022-12-05T08:51:53;38.03;;;13.77;;
61096;SDS011;46977;50.936;6.908;2022-12-05T08:54:55;32.28;;;14.07;;
61096;SDS011;46977;50.936;6.908;2022-12-05T08:58:00;31.20;;;14.23;;
61096;SDS011;46977;50.936;6.908;2022-12-05T09:01:03;31.88;;;13.80;;
61096;SDS011;46977;50.936;6.908;2022-12-05T09:04:06;33.60;;;14.38;;
61096;SDS011;46977;50.936;6.908;2022-12-05T09:07:09;30.85;;;14.73;;
61096;SDS011;46977;50.936;6.908;2022-12-05T09:10:11;40.53;;;16.00;;
61096;SDS011;46977;50.936;6.908;2022-12-05T09:13:15;39.47;;;15.88;;
61096;SDS011;46977;50.936;6.908;2022-12-05T09:16:18;37.15;;;14.85;;
61096;SDS011;46977;50.936;6.908;2022-12-05T09:19:22;38.97;;;15.75;;
61096;SDS011;46977;50.936;6.908;2022-12-05T09:22:26;36.88;;;15.85;;
61096;SDS011;46977;50.936;6.908;2022-12-05T09:25:29;32.85;;;15.45;;
61096;SDS011;46977;50.936;6.908;2022-12-05T09:28:32;35.00;;;16.38;;
61096;SDS011;46977;50.936;6.908;2022-12-05T09:31:35;33.15;;;15.75;;
61096;SDS011;46977;50.936;6.908;2022-12-05T09:34:38;34.60;;;16.73;;
61096;SDS011;46977;50.936;6.908;2022-12-05T09:37:40;35.40;;;15.27;;
61096;SDS011;46977;50.936;6.908;2022-12-05T09:40:43;29.20;;;14.75;;
61096;SDS011;46977;50.936;6.908;2022-12-05T09:43:48;30.17;;;14.20;;
61096;SDS011;46977;50.936;6.908;2022-12-05T09:46:54;31.48;;;13.80;;
61096;SDS011;46977;50.936;6.908;2022-12-05T09:49:59;29.17;;;12.88;;
61096;SDS011;46977;50.936;6.908;2022-12-05T09:53:06;26.38;;;12.48;;
61096;SDS011;46977;50.936;6.908;2022-12-05T09:56:16;26.95;;;12.07;;
61096;SDS011;46977;50.936;6.908;2022-12-05T09:59:24;28.48;;;12.00;;
61096;SDS011;46977;50.936;6.908;2022-12-05T10:02:28;30.02;;;13.40;;
61096;SDS011;46977;50.936;6.908;2022-12-05T10:05:37;27.90;;;13.63;;
61096;SDS011;46977;50.936;6.908;2022-12-05T10:08:48;29.50;;;14.07;;
61096;SDS011;46977;50.936;6.908;2022-12-05T10:12:01;30.65;;;14.10;;
61096;SDS011;46977;50.936;6.908;2022-12-05T10:15:13;33.75;;;13.57;;
61096;SDS011;46977;50.936;6.908;2022-12-05T10:18:25;25.33;;;13.68;;
61096;SDS011;46977;50.936;6.908;2022-12-05T10:21:31;20.50;;;11.98;;
61096;SDS011;46977;50.936;6.908;2022-12-05T10:24:35;23.90;;;12.05;;
61096;SDS011;46977;50.936;6.908;2022-12-05T10:27:40;21.00;;;11.90;;
61096;SDS011;46977;50.936;6.908;2022-12-05T10:30:46;23.75;;;12.75;;
61096;SDS011;46977;50.936;6.908;2022-12-05T10:33:50;25.50;;;12.95;;
61096;SDS011;46977;50.936;6.908;2022-12-05T10:36:59;23.20;;;12.20;;
61096;SDS011;46977;50.936;6.908;2022-12-05T10:40:10;24.83;;;12.15;;
61096;SDS011;46977;50.936;6.908;2022-12-05T10:43:14;19.35;;;10.35;;
61096;SDS011;46977;50.936;6.908;2022-12-05T10:46:22;20.50;;;11.48;;
61096;SDS011;46977;50.936;6.908;2022-12-05T10:49:24;19.92;;;11.85;;
61096;SDS011;46977;50.936;6.908;2022-12-05T10:52:28;21.83;;;10.80;;
61096;SDS011;46977;50.936;6.908;2022-12-05T10:55:33;23.55;;;11.05;;
61096;SDS011;46977;50.936;6.908;2022-12-05T10:58:36;20.90;;;10.85;;
61096;SDS011;46977;50.936;6.908;2022-12-05T11:01:42;21.67;;;11.20;;
61096;SDS011;46977;50.936;6.908;2022-12-05T11:04:46;19.42;;;10.93;;
61096;SDS011;46977;50.936;6.908;2022-12-05T11:07:49;21.65;;;10.00;;
61096;SDS011;46977;50.936;6.908;2022-12-05T11:11:01;20.60;;;10.88;;
61096;SDS011;46977;50.936;6.908;2022-12-05T11:14:06;22.38;;;11.25;;
61096;SDS011;46977;50.936;6.908;2022-12-05T11:17:23;24.33;;;12.40;;
61096;SDS011;46977;50.936;6.908;2022-12-05T11:20:36;20.25;;;10.70;;
61096;SDS011;46977;50.936;6.908;2022-12-05T11:23:40;23.55;;;11.80;;
61096;SDS011;46977;50.936;6.908;2022-12-05T11:26:42;24.55;;;12.65;;
61096;SDS011;46977;50.936;6.908;2022-12-05T11:33:28;26.13;;;12.10;;
61096;SDS011;46977;50.936;6.908;2022-12-05T11:36:52;25.05;;;12.02;;
61096;SDS011;46977;50.936;6.908;2022-12-05T11:49:10;29.95;;;15.00;;
61096;SDS011;46977;50.936;6.908;2022-12-05T11:52:44;29.00;;;14.30;;
61096;SDS011;46977;50.936;6.908;2022-12-05T11:55:58;29.25;;;13.18;;
61096;SDS011;46977;50.936;6.908;2022-12-05T12:03:32;26.38;;;13.18;;
61096;SDS011;46977;50.936;6.908;2022-12-05T12:06:56;30.20;;;13.98;;
61096;SDS011;46977;50.936;6.908;2022-12-05T12:10:19;31.98;;;13.57;;
61096;SDS011;46977;50.936;6.908;2022-12-05T12:13:27;29.60;;;13.73;;
61096;SDS011;46977;50.936;6.908;2022-12-05T12:16:38;25.17;;;12.35;;
61096;SDS011;46977;50.936;6.908;2022-12-05T12:19:52;27.30;;;14.65;;
61096;SDS011;46977;50.936;6.908;2022-12-05T12:23:13;25.70;;;13.25;;
61096;SDS011;46977;50.936;6.908;2022-12-05T12:26:33;27.23;;;13.50;;
61096;SDS011;46977;50.936;6.908;2022-12-05T12:29:42;24.00;;;13.48;;
61096;SDS011;46977;50.936;6.908;2022-12-05T12:32:53;29.25;;;14.70;;
61096;SDS011;46977;50.936;6.908;2022-12-05T12:36:01;23.05;;;12.65;;
61096;SDS011;46977;50.936;6.908;2022-12-05T12:39:24;22.67;;;12.88;;
61096;SDS011;46977;50.936;6.908;2022-12-05T12:42:34;25.60;;;13.73;;
61096;SDS011;46977;50.936;6.908;2022-12-05T12:45:53;24.85;;;12.27;;
61096;SDS011;46977;50.936;6.908;2022-12-05T12:49:05;25.17;;;11.48;;
61096;SDS011;46977;50.936;6.908;2022-12-05T12:52:37;21.40;;;11.35;;
61096;SDS011;46977;50.936;6.908;2022-12-05T12:55:54;17.00;;;10.27;;
61096;SDS011;46977;50.936;6.908;2022-12-05T12:59:08;17.77;;;9.50;;
61096;SDS011;46977;50.936;6.908;2022-12-05T13:02:21;17.23;;;9.48;;
61096;SDS011;46977;50.936;6.908;2022-12-05T13:05:29;14.50;;;9.68;;
61096;SDS011;46977;50.936;6.908;2022-12-05T13:08:34;14.57;;;8.98;;
61096;SDS011;46977;50.936;6.908;2022-12-05T13:11:41;17.20;;;9.43;;
61096;SDS011;46977;50.936;6.908;2022-12-05T13:14:47;16.98;;;9.70;;
61096;SDS011;46977;50.936;6.908;2022-12-05T13:17:52;18.38;;;10.30;;
61096;SDS011;46977;50.936;6.908;2022-12-05T13:20:55;17.65;;;10.60;;
61096;SDS011;46977;50.936;6.908;2022-12-05T13:23:59;19.90;;;10.95;;
61096;SDS011;46977;50.936;6.908;2022-12-05T13:27:06;19.58;;;12.05;;
61096;SDS011;46977;50.936;6.908;2022-12-05T13:30:14;22.48;;;11.75;;
61096;SDS011;46977;50.936;6.908;2022-12-05T13:33:18;24.45;;;11.43;;
61096;SDS011;46977;50.936;6.908;2022-12-05T13:36:29;25.20;;;12.27;;
61096;SDS011;46977;50.936;6.908;2022-12-05T13:40:00;21.70;;;12.38;;
61096;SDS011;46977;50.936;6.908;2022-12-05T13:43:24;22.02;;;11.75;;
61096;SDS011;46977;50.936;6.908;2022-12-05T13:46:29;23.63;;;12.32;;
61096;SDS011;46977;50.936;6.908;2022-12-05T13:49:35;26.58;;;13.02;;
61096;SDS011;46977;50.936;6.908;2022-12-05T13:52:45;22.40;;;11.57;;
61096;SDS011;46977;50.936;6.908;2022-12-05T13:55:55;23.33;;;11.70;;
61096;SDS011;46977;50.936;6.908;2022-12-05T13:59:00;24.40;;;13.88;;
61096;SDS011;46977;50.936;6.908;2022-12-05T14:02:14;24.60;;;13.98;;
61096;SDS011;46977;50.936;6.908;2022-12-05T14:05:55;28.50;;;14.18;;
61096;SDS011;46977;50.936;6.908;2022-12-05T14:08:58;26.27;;;13.43;;
61096;SDS011;46977;50.936;6.908;2022-12-05T14:15:50;29.00;;;13.90;;
61096;SDS011;46977;50.936;6.908;2022-12-05T14:18:53;26.98;;;14.60;;
61096;SDS011;46977;50.936;6.908;2022-12-05T14:22:02;26.67;;;14.02;;
61096;SDS011;46977;50.936;6.908;2022-12-05T14:25:23;25.80;;;13.77;;
61096;SDS011;46977;50.936;6.908;2022-12-05T14:28:35;25.33;;;13.27;;
61096;SDS011;46977;50.936;6.908;2022-12-05T14:31:51;28.35;;;14.75;;
61096;SDS011;46977;50.936;6.908;2022-12-05T14:35:09;25.80;;;13.73;;
61096;SDS011;46977;50.936;6.908;2022-12-05T14:38:18;25.92;;;14.55;;
61096;SDS011;46977;50.936;6.908;2022-12-05T14:41:30;29.50;;;14.30;;
61096;SDS011;46977;50.936;6.908;2022-12-05T14:44:34;28.70;;;15.35;;
61096;SDS011;46977;50.936;6.908;2022-12-05T14:47:38;22.73;;;12.48;;
61096;SDS011;46977;50.936;6.908;2022-12-05T14:50:50;26.02;;;14.50;;
61096;SDS011;46977;50.936;6.908;2022-12-05T14:53:57;25.45;;;12.98;;
61096;SDS011;46977;50.936;6.908;2022-12-05T14:57:08;26.85;;;13.90;;
61096;SDS011;46977;50.936;6.908;2022-12-05T15:00:16;25.83;;;13.07;;
61096;SDS011;46977;50.936;6.908;2022-12-05T15:03:23;30.13;;;13.82;;
61096;SDS011;46977;50.936;6.908;2022-12-05T15:06:30;29.80;;;16.10;;
61096;SDS011;46977;50.936;6.908;2022-12-05T15:09:40;25.30;;;13.88;;
61096;SDS011;46977;50.936;6.908;2022-12-05T15:12:47;25.92;;;12.77;;
61096;SDS011;46977;50.936;6.908;2022-12-05T15:15:51;27.55;;;14.90;;
61096;SDS011;46977;50.936;6.908;2022-12-05T15:19:01;24.13;;;13.55;;
61096;SDS011;46977;50.936;6.908;2022-12-05T15:22:08;25.83;;;13.40;;
61096;SDS011;46977;50.936;6.908;2022-12-05T15:25:20;20.08;;;11.68;;
61096;SDS011;46977;50.936;6.908;2022-12-05T15:28:24;20.75;;;11.57;;
61096;SDS011;46977;50.936;6.908;2022-12-05T15:31:27;22.10;;;12.15;;
61096;SDS011;46977;50.936;6.908;2022-12-05T15:34:35;19.77;;;10.90;;
61096;SDS011;46977;50.936;6.908;2022-12-05T15:37:40;21.80;;;10.43;;
61096;SDS011;46977;50.936;6.908;2022-12-05T15:40:47;15.57;;;9.32;;
61096;SDS011;46977;50.936;6.908;2022-12-05T15:43:53;16.50;;;9.82;;
61096;SDS011;46977;50.936;6.908;2022-12-05T15:46:56;17.27;;;9.07;;
61096;SDS011;46977;50.936;6.908;2022-12-05T15:50:00;18.85;;;10.93;;
61096;SDS011;46977;50.936;6.908;2022-12-05T15:53:04;18.45;;;10.13;;
61096;SDS011;46977;50.936;6.908;2022-12-05T15:56:11;17.10;;;11.18;;
61096;SDS011;46977;50.936;6.908;2022-12-05T15:59:17;21.90;;;12.27;;
61096;SDS011;46977;50.936;6.908;2022-12-05T16:02:22;18.90;;;11.25;;
61096;SDS011;46977;50.936;6.908;2022-12-05T16:05:29;19.55;;;10.43;;
61096;SDS011;46977;50.936;6.908;2022-12-05T16:08:34;21.60;;;11.98;;
61096;SDS011;46977;50.936;6.908;2022-12-05T16:11:49;15.85;;;10.30;;
61096;SDS011;46977;50.936;6.908;2022-12-05T16:14:55;17.27;;;10.88;;
61096;SDS011;46977;50.936;6.908;2022-12-05T16:18:02;17.85;;;10.93;;
61096;SDS011;46977;50.936;6.908;2022-12-05T16:24:40;20.27;;;11.57;;
61096;SDS011;46977;50.936;6.908;2022-12-05T16:27:54;16.80;;;10.35;;
61096;SDS011;46977;50.936;6.908;2022-12-05T16:31:12;16.95;;;10.40;;
61096;SDS011;46977;50.936;6.908;2022-12-05T16:34:18;23.17;;;11.48;;
61096;SDS011;46977;50.936;6.908;2022-12-05T16:37:23;18.77;;;11.68;;
61096;SDS011;46977;50.936;6.908;2022-12-05T16:40:28;18.80;;;10.77;;
61096;SDS011;46977;50.936;6.908;2022-12-05T16:43:41;17.50;;;10.13;;
61096;SDS011;46977;50.936;6.908;2022-12-05T16:46:45;18.63;;;10.75;;
61096;SDS011;46977;50.936;6.908;2022-12-05T16:49:48;16.02;;;10.05;;
61096;SDS011;46977;50.936;6.908;2022-12-05T16:53:00;17.73;;;10.55;;
61096;SDS011;46977;50.936;6.908;2022-12-05T16:56:04;17.15;;;10.30;;
61096;SDS011;46977;50.936;6.908;2022-12-05T16:59:11;20.33;;;12.43;;
61096;SDS011;46977;50.936;6.908;2022-12-05T17:02:17;15.60;;;9.73;;
61096;SDS011;46977;50.936;6.908;2022-12-05T17:05:24;15.30;;;9.85;;
61096;SDS011;46977;50.936;6.908;2022-12-05T17:08:28;15.02;;;10.30;;
61096;SDS011;46977;50.936;6.908;2022-12-05T17:11:31;17.15;;;11.30;;
61096;SDS011;46977;50.936;6.908;2022-12-05T17:14:36;22.20;;;10.73;;
61096;SDS011;46977;50.936;6.908;2022-12-05T17:17:38;17.40;;;10.65;;
61096;SDS011;46977;50.936;6.908;2022-12-05T17:20:42;15.13;;;10.10;;
61096;SDS011;46977;50.936;6.908;2022-12-05T17:23:47;17.15;;;10.45;;
61096;SDS011;46977;50.936;6.908;2022-12-05T17:26:50;13.23;;;9.90;;
61096;SDS011;46977;50.936;6.908;2022-12-05T17:29:57;15.18;;;10.80;;
61096;SDS011;46977;50.936;6.908;2022-12-05T17:33:08;15.38;;;9.50;;
61096;SDS011;46977;50.936;6.908;2022-12-05T17:36:12;13.65;;;9.35;;
61096;SDS011;46977;50.936;6.908;2022-12-05T17:39:17;18.55;;;10.27;;
61096;SDS011;46977;50.936;6.908;2022-12-05T17:42:27;16.77;;;10.35;;
61096;SDS011;46977;50.936;6.908;2022-12-05T17:45:30;23.67;;;12.40;;
61096;SDS011;46977;50.936;6.908;2022-12-05T17:48:32;18.92;;;10.88;;
61096;SDS011;46977;50.936;6.908;2022-12-05T17:51:46;20.05;;;10.80;;
61096;SDS011;46977;50.936;6.908;2022-12-05T17:55:38;16.45;;;10.43;;
61096;SDS011;46977;50.936;6.908;2022-12-05T17:59:19;20.75;;;12.30;;
61096;SDS011;46977;50.936;6.908;2022-12-05T18:07:27;21.45;;;11.05;;
61096;SDS011;46977;50.936;6.908;2022-12-05T18:10:31;18.48;;;11.27;;
61096;SDS011;46977;50.936;6.908;2022-12-05T18:13:33;21.83;;;11.70;;
61096;SDS011;46977;50.936;6.908;2022-12-05T18:16:36;23.02;;;12.45;;
61096;SDS011;46977;50.936;6.908;2022-12-05T18:19:38;22.50;;;12.32;;
61096;SDS011;46977;50.936;6.908;2022-12-05T18:22:41;20.23;;;11.45;;
61096;SDS011;46977;50.936;6.908;2022-12-05T18:25:54;21.73;;;12.02;;
61096;SDS011;46977;50.936;6.908;2022-12-05T18:28:58;19.25;;;11.50;;
61096;SDS011;46977;50.936;6.908;2022-12-05T18:32:00;21.63;;;11.50;;
61096;SDS011;46977;50.936;6.908;2022-12-05T18:35:03;18.83;;;11.50;;
61096;SDS011;46977;50.936;6.908;2022-12-05T18:38:13;18.73;;;11.70;;
61096;SDS011;46977;50.936;6.908;2022-12-05T18:41:17;16.23;;;10.38;;
61096;SDS011;46977;50.936;6.908;2022-12-05T18:44:19;16.33;;;10.65;;
61096;SDS011;46977;50.936;6.908;2022-12-05T18:47:22;19.67;;;11.05;;
61096;SDS011;46977;50.936;6.908;2022-12-05T18:50:28;15.60;;;9.85;;